sensor_id;sensor_type;location;lat;lon;timestamp;P1;durP1;ratioP1;P2;durP2;ratioP2
13252;SDS011;6693;54.370;10.132;2023-04-07T00:00:01;12.68;;;7.03;;
13252;SDS011;6693;54.370;10.132;2023-04-07T00:01:05;11.00;;;6.40;;
13252;SDS011;6693;54.370;10.132;2023-04-07T00:02:10;11.45;;;5.60;;
13252;SDS011;6693;54.370;10.132;2023-04-07T00:03:11;10.30;;;5.70;;
13252;SDS011;6693;54.370;10.132;2023-04-07T00:04:15;12.18;;;6.68;;
13252;SDS011;6693;54.370;10.132;2023-04-07T00:05:15;9.80;;;5.57;;
13252;SDS011;6693;54.370;10.132;2023-04-07T00:06:19;8.55;;;5.43;;
13252;SDS011;6693;54.370;10.132;2023-04-07T00:07:19;10.93;;;6.28;;
13252;SDS011;6693;54.370;10.132;2023-04-07T00:08:22;10.25;;;6.15;;
13252;SDS011;6693;54.370;10.132;2023-04-07T00:09:23;10.00;;;5.63;;
13252;SDS011;6693;54.370;10.132;2023-04-07T00:10:26;8.10;;;4.65;;
13252;SDS011;6693;54.370;10.132;2023-04-07T00:11:27;8.27;;;3.83;;
13252;SDS011;6693;54.370;10.132;2023-04-07T00:12:30;7.68;;;4.53;;
13252;SDS011;6693;54.370;10.132;2023-04-07T00:13:31;13.10;;;5.80;;
13252;SDS011;6693;54.370;10.132;2023-04-07T00:14:34;10.05;;;6.07;;
13252;SDS011;6693;54.370;10.132;2023-04-07T00:15:35;8.52;;;4.25;;
13252;SDS011;6693;54.370;10.132;2023-04-07T00:16:38;8.15;;;4.90;;
13252;SDS011;6693;54.370;10.132;2023-04-07T00:17:41;10.43;;;5.65;;
13252;SDS011;6693;54.370;10.132;2023-04-07T00:18:44;7.03;;;4.32;;
13252;SDS011;6693;54.370;10.132;2023-04-07T00:19:45;7.47;;;3.95;;
13252;SDS011;6693;54.370;10.132;2023-04-07T00:20:48;8.15;;;4.40;;
13252;SDS011;6693;54.370;10.132;2023-04-07T00:21:49;8.63;;;4.40;;
13252;SDS011;6693;54.370;10.132;2023-04-07T00:22:53;8.07;;;4.75;;
13252;SDS011;6693;54.370;10.132;2023-04-07T00:23:54;8.73;;;4.47;;
13252;SDS011;6693;54.370;10.132;2023-04-07T00:24:58;8.45;;;4.75;;
13252;SDS011;6693;54.370;10.132;2023-04-07T00:25:58;10.55;;;5.35;;
13252;SDS011;6693;54.370;10.132;2023-04-07T00:27:02;10.57;;;5.03;;
13252;SDS011;6693;54.370;10.132;2023-04-07T00:28:02;7.57;;;3.72;;
13252;SDS011;6693;54.370;10.132;2023-04-07T00:29:06;10.90;;;5.40;;
13252;SDS011;6693;54.370;10.132;2023-04-07T00:30:07;8.18;;;5.00;;
13252;SDS011;6693;54.370;10.132;2023-04-07T00:31:10;8.13;;;4.88;;
13252;SDS011;6693;54.370;10.132;2023-04-07T00:32:11;11.00;;;5.20;;
13252;SDS011;6693;54.370;10.132;2023-04-07T00:33:17;9.38;;;4.97;;
13252;SDS011;6693;54.370;10.132;2023-04-07T00:34:17;9.68;;;5.60;;
13252;SDS011;6693;54.370;10.132;2023-04-07T00:35:20;7.68;;;4.78;;
13252;SDS011;6693;54.370;10.132;2023-04-07T00:36:24;11.13;;;5.70;;
13252;SDS011;6693;54.370;10.132;2023-04-07T00:37:26;7.97;;;4.03;;
13252;SDS011;6693;54.370;10.132;2023-04-07T00:38:29;8.32;;;4.93;;
13252;SDS011;6693;54.370;10.132;2023-04-07T00:39:31;8.10;;;4.07;;
13252;SDS011;6693;54.370;10.132;2023-04-07T00:40:34;8.70;;;5.15;;
13252;SDS011;6693;54.370;10.132;2023-04-07T00:41:35;7.55;;;4.60;;
13252;SDS011;6693;54.370;10.132;2023-04-07T00:42:41;9.50;;;5.68;;
13252;SDS011;6693;54.370;10.132;2023-04-07T00:43:41;8.65;;;5.97;;
13252;SDS011;6693;54.370;10.132;2023-04-07T00:44:45;9.23;;;5.60;;
13252;SDS011;6693;54.370;10.132;2023-04-07T00:45:45;9.98;;;4.78;;
13252;SDS011;6693;54.370;10.132;2023-04-07T00:46:48;8.73;;;5.50;;
13252;SDS011;6693;54.370;10.132;2023-04-07T00:47:49;9.27;;;5.25;;
13252;SDS011;6693;54.370;10.132;2023-04-07T00:48:55;8.55;;;5.03;;
13252;SDS011;6693;54.370;10.132;2023-04-07T00:49:55;6.45;;;2.75;;
13252;SDS011;6693;54.370;10.132;2023-04-07T00:50:59;8.70;;;4.63;;
13252;SDS011;6693;54.370;10.132;2023-04-07T00:52:00;7.03;;;3.65;;
13252;SDS011;6693;54.370;10.132;2023-04-07T00:53:03;6.30;;;3.35;;
13252;SDS011;6693;54.370;10.132;2023-04-07T00:54:04;6.85;;;4.25;;
13252;SDS011;6693;54.370;10.132;2023-04-07T00:55:07;5.57;;;2.42;;
13252;SDS011;6693;54.370;10.132;2023-04-07T00:56:08;9.75;;;4.55;;
13252;SDS011;6693;54.370;10.132;2023-04-07T00:57:12;9.63;;;4.13;;
13252;SDS011;6693;54.370;10.132;2023-04-07T00:58:13;7.63;;;4.05;;
13252;SDS011;6693;54.370;10.132;2023-04-07T00:59:16;7.80;;;4.22;;
13252;SDS011;6693;54.370;10.132;2023-04-07T01:00:17;8.88;;;4.97;;
13252;SDS011;6693;54.370;10.132;2023-04-07T01:01:21;7.22;;;3.67;;
13252;SDS011;6693;54.370;10.132;2023-04-07T01:02:25;7.45;;;4.28;;
13252;SDS011;6693;54.370;10.132;2023-04-07T01:03:34;5.63;;;3.67;;
13252;SDS011;6693;54.370;10.132;2023-04-07T01:04:42;5.72;;;3.47;;
13252;SDS011;6693;54.370;10.132;2023-04-07T01:05:49;7.25;;;3.72;;
13252;SDS011;6693;54.370;10.132;2023-04-07T01:06:53;6.53;;;4.18;;
13252;SDS011;6693;54.370;10.132;2023-04-07T01:08:03;8.52;;;4.07;;
13252;SDS011;6693;54.370;10.132;2023-04-07T01:09:09;7.85;;;3.33;;
13252;SDS011;6693;54.370;10.132;2023-04-07T01:10:18;6.90;;;4.10;;
13252;SDS011;6693;54.370;10.132;2023-04-07T01:11:22;7.20;;;4.03;;
13252;SDS011;6693;54.370;10.132;2023-04-07T01:12:28;7.13;;;3.25;;
13252;SDS011;6693;54.370;10.132;2023-04-07T01:13:35;7.43;;;4.18;;
13252;SDS011;6693;54.370;10.132;2023-04-07T01:14:45;7.15;;;3.35;;
13252;SDS011;6693;54.370;10.132;2023-04-07T01:15:48;8.57;;;4.45;;
13252;SDS011;6693;54.370;10.132;2023-04-07T01:17:57;7.07;;;3.83;;
13252;SDS011;6693;54.370;10.132;2023-04-07T01:19:03;7.68;;;3.50;;
13252;SDS011;6693;54.370;10.132;2023-04-07T01:20:11;7.63;;;3.40;;
13252;SDS011;6693;54.370;10.132;2023-04-07T01:21:17;7.95;;;3.70;;
13252;SDS011;6693;54.370;10.132;2023-04-07T01:22:22;8.13;;;4.82;;
13252;SDS011;6693;54.370;10.132;2023-04-07T01:23:31;7.32;;;3.30;;
13252;SDS011;6693;54.370;10.132;2023-04-07T01:24:50;6.97;;;3.65;;
13252;SDS011;6693;54.370;10.132;2023-04-07T01:26:04;8.25;;;4.72;;
13252;SDS011;6693;54.370;10.132;2023-04-07T01:27:12;7.47;;;3.33;;
13252;SDS011;6693;54.370;10.132;2023-04-07T01:28:32;6.50;;;2.70;;
13252;SDS011;6693;54.370;10.132;2023-04-07T01:29:43;7.40;;;4.47;;
13252;SDS011;6693;54.370;10.132;2023-04-07T01:30:49;7.35;;;4.45;;
13252;SDS011;6693;54.370;10.132;2023-04-07T01:31:53;7.35;;;3.97;;
13252;SDS011;6693;54.370;10.132;2023-04-07T01:32:58;7.63;;;3.75;;
13252;SDS011;6693;54.370;10.132;2023-04-07T01:33:59;6.57;;;4.07;;
13252;SDS011;6693;54.370;10.132;2023-04-07T01:35:04;8.70;;;4.00;;
13252;SDS011;6693;54.370;10.132;2023-04-07T01:36:09;7.80;;;3.13;;
13252;SDS011;6693;54.370;10.132;2023-04-07T01:37:12;8.57;;;4.30;;
13252;SDS011;6693;54.370;10.132;2023-04-07T01:38:14;8.25;;;3.28;;
13252;SDS011;6693;54.370;10.132;2023-04-07T01:39:18;7.43;;;3.72;;
13252;SDS011;6693;54.370;10.132;2023-04-07T01:40:19;6.88;;;3.50;;
13252;SDS011;6693;54.370;10.132;2023-04-07T01:41:23;7.95;;;4.40;;
13252;SDS011;6693;54.370;10.132;2023-04-07T01:42:24;5.72;;;2.30;;
13252;SDS011;6693;54.370;10.132;2023-04-07T01:43:28;6.07;;;3.00;;
13252;SDS011;6693;54.370;10.132;2023-04-07T01:44:30;6.55;;;3.10;;
13252;SDS011;6693;54.370;10.132;2023-04-07T01:45:37;6.25;;;3.45;;
13252;SDS011;6693;54.370;10.132;2023-04-07T01:46:37;8.18;;;3.97;;
13252;SDS011;6693;54.370;10.132;2023-04-07T01:47:41;5.15;;;2.85;;
13252;SDS011;6693;54.370;10.132;2023-04-07T01:48:42;6.20;;;2.88;;
13252;SDS011;6693;54.370;10.132;2023-04-07T01:49:46;6.93;;;3.70;;
13252;SDS011;6693;54.370;10.132;2023-04-07T01:50:47;7.53;;;3.70;;
13252;SDS011;6693;54.370;10.132;2023-04-07T01:51:51;6.72;;;3.33;;
13252;SDS011;6693;54.370;10.132;2023-04-07T01:52:52;6.97;;;3.70;;
13252;SDS011;6693;54.370;10.132;2023-04-07T01:53:55;7.00;;;3.22;;
13252;SDS011;6693;54.370;10.132;2023-04-07T01:54:56;7.20;;;3.63;;
13252;SDS011;6693;54.370;10.132;2023-04-07T01:55:59;7.18;;;3.70;;
13252;SDS011;6693;54.370;10.132;2023-04-07T01:57:00;6.60;;;2.63;;
13252;SDS011;6693;54.370;10.132;2023-04-07T01:58:03;8.60;;;4.63;;
13252;SDS011;6693;54.370;10.132;2023-04-07T01:59:05;5.18;;;2.80;;
13252;SDS011;6693;54.370;10.132;2023-04-07T02:00:08;7.32;;;3.08;;
13252;SDS011;6693;54.370;10.132;2023-04-07T02:01:12;10.02;;;4.75;;
13252;SDS011;6693;54.370;10.132;2023-04-07T02:02:16;6.63;;;3.40;;
13252;SDS011;6693;54.370;10.132;2023-04-07T02:03:17;8.18;;;3.20;;
13252;SDS011;6693;54.370;10.132;2023-04-07T02:04:24;6.43;;;3.47;;
13252;SDS011;6693;54.370;10.132;2023-04-07T02:05:28;7.30;;;2.90;;
13252;SDS011;6693;54.370;10.132;2023-04-07T02:06:33;5.57;;;3.63;;
13252;SDS011;6693;54.370;10.132;2023-04-07T02:07:36;6.80;;;3.55;;
13252;SDS011;6693;54.370;10.132;2023-04-07T02:08:44;5.32;;;2.75;;
13252;SDS011;6693;54.370;10.132;2023-04-07T02:09:47;7.55;;;4.78;;
13252;SDS011;6693;54.370;10.132;2023-04-07T02:10:51;8.32;;;4.55;;
13252;SDS011;6693;54.370;10.132;2023-04-07T02:12:56;5.60;;;3.20;;
13252;SDS011;6693;54.370;10.132;2023-04-07T02:13:58;6.25;;;2.60;;
13252;SDS011;6693;54.370;10.132;2023-04-07T02:15:03;8.75;;;5.22;;
13252;SDS011;6693;54.370;10.132;2023-04-07T02:16:05;6.93;;;4.57;;
13252;SDS011;6693;54.370;10.132;2023-04-07T02:17:11;9.70;;;5.65;;
13252;SDS011;6693;54.370;10.132;2023-04-07T02:18:13;11.10;;;4.75;;
13252;SDS011;6693;54.370;10.132;2023-04-07T02:19:17;6.78;;;2.92;;
13252;SDS011;6693;54.370;10.132;2023-04-07T02:20:18;6.18;;;3.85;;
13252;SDS011;6693;54.370;10.132;2023-04-07T02:21:22;8.45;;;4.20;;
13252;SDS011;6693;54.370;10.132;2023-04-07T02:22:24;7.65;;;4.20;;
13252;SDS011;6693;54.370;10.132;2023-04-07T02:23:27;7.82;;;3.70;;
13252;SDS011;6693;54.370;10.132;2023-04-07T02:24:28;6.72;;;3.88;;
13252;SDS011;6693;54.370;10.132;2023-04-07T02:25:31;8.25;;;4.40;;
13252;SDS011;6693;54.370;10.132;2023-04-07T02:26:32;7.97;;;3.75;;
13252;SDS011;6693;54.370;10.132;2023-04-07T02:27:36;7.80;;;4.95;;
13252;SDS011;6693;54.370;10.132;2023-04-07T02:28:37;7.20;;;2.83;;
13252;SDS011;6693;54.370;10.132;2023-04-07T02:29:40;6.63;;;4.03;;
13252;SDS011;6693;54.370;10.132;2023-04-07T02:30:40;6.57;;;3.05;;
13252;SDS011;6693;54.370;10.132;2023-04-07T02:31:44;7.03;;;3.78;;
13252;SDS011;6693;54.370;10.132;2023-04-07T02:32:48;6.97;;;4.18;;
13252;SDS011;6693;54.370;10.132;2023-04-07T02:33:51;9.93;;;5.47;;
13252;SDS011;6693;54.370;10.132;2023-04-07T02:34:51;5.60;;;2.92;;
13252;SDS011;6693;54.370;10.132;2023-04-07T02:35:55;7.05;;;4.25;;
13252;SDS011;6693;54.370;10.132;2023-04-07T02:36:55;6.50;;;3.35;;
13252;SDS011;6693;54.370;10.132;2023-04-07T02:37:58;8.77;;;4.70;;
13252;SDS011;6693;54.370;10.132;2023-04-07T02:38:59;7.15;;;4.60;;
13252;SDS011;6693;54.370;10.132;2023-04-07T02:40:03;7.93;;;3.70;;
13252;SDS011;6693;54.370;10.132;2023-04-07T02:41:04;7.55;;;4.20;;
13252;SDS011;6693;54.370;10.132;2023-04-07T02:42:07;7.55;;;3.45;;
13252;SDS011;6693;54.370;10.132;2023-04-07T02:43:08;7.93;;;4.93;;
13252;SDS011;6693;54.370;10.132;2023-04-07T02:44:11;8.93;;;4.38;;
13252;SDS011;6693;54.370;10.132;2023-04-07T02:45:11;7.57;;;3.17;;
13252;SDS011;6693;54.370;10.132;2023-04-07T02:46:15;5.93;;;3.03;;
13252;SDS011;6693;54.370;10.132;2023-04-07T02:47:16;8.82;;;4.43;;
13252;SDS011;6693;54.370;10.132;2023-04-07T02:48:22;8.80;;;5.68;;
13252;SDS011;6693;54.370;10.132;2023-04-07T02:49:22;9.63;;;6.75;;
13252;SDS011;6693;54.370;10.132;2023-04-07T02:50:26;9.90;;;6.13;;
13252;SDS011;6693;54.370;10.132;2023-04-07T02:52:31;10.23;;;7.10;;
13252;SDS011;6693;54.370;10.132;2023-04-07T02:53:31;13.43;;;9.25;;
13252;SDS011;6693;54.370;10.132;2023-04-07T02:54:34;13.45;;;8.55;;
13252;SDS011;6693;54.370;10.132;2023-04-07T02:55:35;10.93;;;6.97;;
13252;SDS011;6693;54.370;10.132;2023-04-07T02:56:38;14.77;;;11.85;;
13252;SDS011;6693;54.370;10.132;2023-04-07T02:57:39;13.48;;;10.55;;
13252;SDS011;6693;54.370;10.132;2023-04-07T02:58:42;12.30;;;9.07;;
13252;SDS011;6693;54.370;10.132;2023-04-07T02:59:43;14.93;;;11.20;;
13252;SDS011;6693;54.370;10.132;2023-04-07T03:00:46;12.48;;;8.82;;
13252;SDS011;6693;54.370;10.132;2023-04-07T03:01:47;12.55;;;9.02;;
13252;SDS011;6693;54.370;10.132;2023-04-07T03:02:50;14.95;;;11.48;;
13252;SDS011;6693;54.370;10.132;2023-04-07T03:03:53;13.52;;;9.60;;
13252;SDS011;6693;54.370;10.132;2023-04-07T03:04:56;18.80;;;14.40;;
13252;SDS011;6693;54.370;10.132;2023-04-07T03:05:57;15.95;;;11.90;;
13252;SDS011;6693;54.370;10.132;2023-04-07T03:07:00;13.73;;;10.38;;
13252;SDS011;6693;54.370;10.132;2023-04-07T03:08:01;14.27;;;10.10;;
13252;SDS011;6693;54.370;10.132;2023-04-07T03:09:04;13.30;;;10.88;;
13252;SDS011;6693;54.370;10.132;2023-04-07T03:10:06;13.75;;;9.50;;
13252;SDS011;6693;54.370;10.132;2023-04-07T03:11:09;14.77;;;9.15;;
13252;SDS011;6693;54.370;10.132;2023-04-07T03:12:10;13.80;;;9.70;;
13252;SDS011;6693;54.370;10.132;2023-04-07T03:13:13;13.90;;;9.55;;
13252;SDS011;6693;54.370;10.132;2023-04-07T03:14:15;19.08;;;13.77;;
13252;SDS011;6693;54.370;10.132;2023-04-07T03:15:18;14.63;;;10.90;;
13252;SDS011;6693;54.370;10.132;2023-04-07T03:16:19;11.75;;;7.80;;
13252;SDS011;6693;54.370;10.132;2023-04-07T03:17:23;11.52;;;8.98;;
13252;SDS011;6693;54.370;10.132;2023-04-07T03:18:23;10.55;;;8.07;;
13252;SDS011;6693;54.370;10.132;2023-04-07T03:19:29;14.38;;;9.82;;
13252;SDS011;6693;54.370;10.132;2023-04-07T03:20:30;14.02;;;10.30;;
13252;SDS011;6693;54.370;10.132;2023-04-07T03:21:33;13.48;;;9.88;;
13252;SDS011;6693;54.370;10.132;2023-04-07T03:22:34;10.98;;;6.68;;
13252;SDS011;6693;54.370;10.132;2023-04-07T03:23:37;9.63;;;5.90;;
13252;SDS011;6693;54.370;10.132;2023-04-07T03:24:38;6.80;;;4.07;;
13252;SDS011;6693;54.370;10.132;2023-04-07T03:25:43;9.48;;;5.55;;
13252;SDS011;6693;54.370;10.132;2023-04-07T03:26:43;8.30;;;4.93;;
13252;SDS011;6693;54.370;10.132;2023-04-07T03:27:47;10.35;;;4.75;;
13252;SDS011;6693;54.370;10.132;2023-04-07T03:28:47;9.88;;;5.03;;
13252;SDS011;6693;54.370;10.132;2023-04-07T03:29:51;9.93;;;5.28;;
13252;SDS011;6693;54.370;10.132;2023-04-07T03:30:51;8.98;;;4.63;;
13252;SDS011;6693;54.370;10.132;2023-04-07T03:31:54;8.40;;;4.40;;
13252;SDS011;6693;54.370;10.132;2023-04-07T03:32:55;10.27;;;6.07;;
13252;SDS011;6693;54.370;10.132;2023-04-07T03:33:59;11.05;;;7.05;;
13252;SDS011;6693;54.370;10.132;2023-04-07T03:35:02;10.63;;;6.50;;
13252;SDS011;6693;54.370;10.132;2023-04-07T03:36:06;9.88;;;6.55;;
13252;SDS011;6693;54.370;10.132;2023-04-07T03:37:10;9.00;;;5.72;;
13252;SDS011;6693;54.370;10.132;2023-04-07T03:38:10;11.65;;;7.03;;
13252;SDS011;6693;54.370;10.132;2023-04-07T03:39:13;9.95;;;6.13;;
13252;SDS011;6693;54.370;10.132;2023-04-07T03:40:14;11.00;;;6.10;;
13252;SDS011;6693;54.370;10.132;2023-04-07T03:41:18;11.60;;;6.78;;
13252;SDS011;6693;54.370;10.132;2023-04-07T03:42:18;9.35;;;5.55;;
13252;SDS011;6693;54.370;10.132;2023-04-07T03:43:21;10.10;;;6.78;;
13252;SDS011;6693;54.370;10.132;2023-04-07T03:44:22;11.98;;;8.15;;
13252;SDS011;6693;54.370;10.132;2023-04-07T03:45:25;9.73;;;6.70;;
13252;SDS011;6693;54.370;10.132;2023-04-07T03:46:26;12.20;;;6.85;;
13252;SDS011;6693;54.370;10.132;2023-04-07T03:47:29;11.18;;;7.75;;
13252;SDS011;6693;54.370;10.132;2023-04-07T03:48:30;9.18;;;5.93;;
13252;SDS011;6693;54.370;10.132;2023-04-07T03:49:33;11.02;;;8.48;;
13252;SDS011;6693;54.370;10.132;2023-04-07T03:50:36;12.93;;;7.90;;
13252;SDS011;6693;54.370;10.132;2023-04-07T03:51:39;10.85;;;7.60;;
13252;SDS011;6693;54.370;10.132;2023-04-07T03:52:40;10.70;;;6.97;;
13252;SDS011;6693;54.370;10.132;2023-04-07T03:53:43;12.57;;;8.23;;
13252;SDS011;6693;54.370;10.132;2023-04-07T03:54:44;11.75;;;7.32;;
13252;SDS011;6693;54.370;10.132;2023-04-07T03:55:47;9.60;;;6.15;;
13252;SDS011;6693;54.370;10.132;2023-04-07T03:56:48;10.52;;;6.40;;
13252;SDS011;6693;54.370;10.132;2023-04-07T03:57:51;10.68;;;6.32;;
13252;SDS011;6693;54.370;10.132;2023-04-07T03:58:52;11.63;;;7.85;;
13252;SDS011;6693;54.370;10.132;2023-04-07T03:59:55;11.73;;;7.47;;
13252;SDS011;6693;54.370;10.132;2023-04-07T04:00:56;11.20;;;7.25;;
13252;SDS011;6693;54.370;10.132;2023-04-07T04:01:59;11.73;;;7.75;;
13252;SDS011;6693;54.370;10.132;2023-04-07T04:03:00;10.05;;;6.63;;
13252;SDS011;6693;54.370;10.132;2023-04-07T04:04:04;11.15;;;6.97;;
13252;SDS011;6693;54.370;10.132;2023-04-07T04:05:05;10.40;;;7.35;;
13252;SDS011;6693;54.370;10.132;2023-04-07T04:06:11;12.65;;;7.38;;
13252;SDS011;6693;54.370;10.132;2023-04-07T04:07:11;12.35;;;8.20;;
13252;SDS011;6693;54.370;10.132;2023-04-07T04:08:15;10.88;;;7.13;;
13252;SDS011;6693;54.370;10.132;2023-04-07T04:09:15;12.95;;;7.38;;
13252;SDS011;6693;54.370;10.132;2023-04-07T04:10:19;10.20;;;5.72;;
13252;SDS011;6693;54.370;10.132;2023-04-07T04:11:20;11.60;;;7.68;;
13252;SDS011;6693;54.370;10.132;2023-04-07T04:12:23;11.35;;;6.18;;
13252;SDS011;6693;54.370;10.132;2023-04-07T04:13:24;9.93;;;7.32;;
13252;SDS011;6693;54.370;10.132;2023-04-07T04:14:27;11.07;;;6.90;;
13252;SDS011;6693;54.370;10.132;2023-04-07T04:15:28;11.60;;;6.80;;
13252;SDS011;6693;54.370;10.132;2023-04-07T04:16:31;9.85;;;5.00;;
13252;SDS011;6693;54.370;10.132;2023-04-07T04:17:31;10.68;;;6.72;;
13252;SDS011;6693;54.370;10.132;2023-04-07T04:18:35;13.73;;;6.68;;
13252;SDS011;6693;54.370;10.132;2023-04-07T04:19:35;10.48;;;7.07;;
13252;SDS011;6693;54.370;10.132;2023-04-07T04:20:38;11.35;;;6.03;;
13252;SDS011;6693;54.370;10.132;2023-04-07T04:21:42;10.30;;;7.35;;
13252;SDS011;6693;54.370;10.132;2023-04-07T04:22:45;12.32;;;7.00;;
13252;SDS011;6693;54.370;10.132;2023-04-07T04:23:46;12.60;;;7.75;;
13252;SDS011;6693;54.370;10.132;2023-04-07T04:24:49;11.50;;;5.80;;
13252;SDS011;6693;54.370;10.132;2023-04-07T04:25:49;13.20;;;7.95;;
13252;SDS011;6693;54.370;10.132;2023-04-07T04:26:53;10.90;;;7.05;;
13252;SDS011;6693;54.370;10.132;2023-04-07T04:27:53;12.90;;;7.22;;
13252;SDS011;6693;54.370;10.132;2023-04-07T04:28:56;10.55;;;7.30;;
13252;SDS011;6693;54.370;10.132;2023-04-07T04:29:57;11.10;;;7.25;;
13252;SDS011;6693;54.370;10.132;2023-04-07T04:31:00;10.43;;;6.32;;
13252;SDS011;6693;54.370;10.132;2023-04-07T04:32:01;11.88;;;7.60;;
13252;SDS011;6693;54.370;10.132;2023-04-07T04:33:04;11.35;;;7.88;;
13252;SDS011;6693;54.370;10.132;2023-04-07T04:34:06;11.70;;;8.15;;
13252;SDS011;6693;54.370;10.132;2023-04-07T04:35:10;11.70;;;7.78;;
13252;SDS011;6693;54.370;10.132;2023-04-07T04:36:10;12.35;;;8.07;;
13252;SDS011;6693;54.370;10.132;2023-04-07T04:37:16;10.60;;;7.13;;
13252;SDS011;6693;54.370;10.132;2023-04-07T04:38:17;11.07;;;7.43;;
13252;SDS011;6693;54.370;10.132;2023-04-07T04:39:20;12.75;;;8.35;;
13252;SDS011;6693;54.370;10.132;2023-04-07T04:40:21;11.88;;;8.10;;
13252;SDS011;6693;54.370;10.132;2023-04-07T04:41:24;13.48;;;8.18;;
13252;SDS011;6693;54.370;10.132;2023-04-07T04:42:25;12.25;;;8.30;;
13252;SDS011;6693;54.370;10.132;2023-04-07T04:43:30;13.18;;;8.52;;
13252;SDS011;6693;54.370;10.132;2023-04-07T04:44:31;13.68;;;8.45;;
13252;SDS011;6693;54.370;10.132;2023-04-07T04:45:34;11.13;;;7.93;;
13252;SDS011;6693;54.370;10.132;2023-04-07T04:46:35;13.13;;;7.43;;
13252;SDS011;6693;54.370;10.132;2023-04-07T04:47:38;11.85;;;8.07;;
13252;SDS011;6693;54.370;10.132;2023-04-07T04:48:39;12.13;;;7.90;;
13252;SDS011;6693;54.370;10.132;2023-04-07T04:49:42;13.23;;;6.40;;
13252;SDS011;6693;54.370;10.132;2023-04-07T04:50:43;14.00;;;8.18;;
13252;SDS011;6693;54.370;10.132;2023-04-07T04:51:46;11.50;;;7.10;;
13252;SDS011;6693;54.370;10.132;2023-04-07T04:52:49;12.55;;;8.02;;
13252;SDS011;6693;54.370;10.132;2023-04-07T04:53:52;12.35;;;8.50;;
13252;SDS011;6693;54.370;10.132;2023-04-07T04:54:53;14.73;;;8.82;;
13252;SDS011;6693;54.370;10.132;2023-04-07T04:55:56;13.27;;;9.05;;
13252;SDS011;6693;54.370;10.132;2023-04-07T04:56:57;12.38;;;7.30;;
13252;SDS011;6693;54.370;10.132;2023-04-07T04:58:00;12.57;;;7.47;;
13252;SDS011;6693;54.370;10.132;2023-04-07T04:59:01;14.75;;;9.32;;
13252;SDS011;6693;54.370;10.132;2023-04-07T05:00:05;12.60;;;8.88;;
13252;SDS011;6693;54.370;10.132;2023-04-07T05:01:07;14.45;;;9.32;;
13252;SDS011;6693;54.370;10.132;2023-04-07T05:02:10;13.38;;;8.45;;
13252;SDS011;6693;54.370;10.132;2023-04-07T05:03:10;13.98;;;9.10;;
13252;SDS011;6693;54.370;10.132;2023-04-07T05:04:14;14.65;;;8.15;;
13252;SDS011;6693;54.370;10.132;2023-04-07T05:05:15;13.98;;;9.02;;
13252;SDS011;6693;54.370;10.132;2023-04-07T05:06:18;15.52;;;8.85;;
13252;SDS011;6693;54.370;10.132;2023-04-07T05:07:19;16.20;;;9.02;;
13252;SDS011;6693;54.370;10.132;2023-04-07T05:08:25;13.05;;;8.50;;
13252;SDS011;6693;54.370;10.132;2023-04-07T05:09:26;13.52;;;9.52;;
13252;SDS011;6693;54.370;10.132;2023-04-07T05:10:29;14.38;;;8.15;;
13252;SDS011;6693;54.370;10.132;2023-04-07T05:11:30;13.05;;;9.10;;
13252;SDS011;6693;54.370;10.132;2023-04-07T05:12:33;13.90;;;9.15;;
13252;SDS011;6693;54.370;10.132;2023-04-07T05:13:34;15.25;;;8.80;;
13252;SDS011;6693;54.370;10.132;2023-04-07T05:14:37;12.63;;;7.47;;
13252;SDS011;6693;54.370;10.132;2023-04-07T05:15:39;13.50;;;8.82;;
13252;SDS011;6693;54.370;10.132;2023-04-07T05:16:43;13.52;;;7.80;;
13252;SDS011;6693;54.370;10.132;2023-04-07T05:17:43;16.15;;;9.00;;
13252;SDS011;6693;54.370;10.132;2023-04-07T05:18:49;15.10;;;9.57;;
13252;SDS011;6693;54.370;10.132;2023-04-07T05:19:50;14.32;;;8.98;;
13252;SDS011;6693;54.370;10.132;2023-04-07T05:20:53;14.52;;;9.60;;
13252;SDS011;6693;54.370;10.132;2023-04-07T05:21:54;13.35;;;8.93;;
13252;SDS011;6693;54.370;10.132;2023-04-07T05:22:57;15.73;;;8.65;;
13252;SDS011;6693;54.370;10.132;2023-04-07T05:24:00;15.55;;;9.60;;
13252;SDS011;6693;54.370;10.132;2023-04-07T05:25:03;15.75;;;10.20;;
13252;SDS011;6693;54.370;10.132;2023-04-07T05:27:08;14.32;;;8.68;;
13252;SDS011;6693;54.370;10.132;2023-04-07T05:28:09;13.85;;;8.90;;
13252;SDS011;6693;54.370;10.132;2023-04-07T05:29:12;13.80;;;8.75;;
13252;SDS011;6693;54.370;10.132;2023-04-07T05:30:13;14.82;;;9.52;;
13252;SDS011;6693;54.370;10.132;2023-04-07T05:31:16;13.23;;;8.38;;
13252;SDS011;6693;54.370;10.132;2023-04-07T05:32:17;15.30;;;9.00;;
13252;SDS011;6693;54.370;10.132;2023-04-07T05:33:20;13.85;;;8.55;;
13252;SDS011;6693;54.370;10.132;2023-04-07T05:34:21;15.07;;;9.05;;
13252;SDS011;6693;54.370;10.132;2023-04-07T05:35:25;15.45;;;9.60;;
13252;SDS011;6693;54.370;10.132;2023-04-07T05:36:25;13.88;;;9.55;;
13252;SDS011;6693;54.370;10.132;2023-04-07T05:37:28;15.13;;;9.63;;
13252;SDS011;6693;54.370;10.132;2023-04-07T05:38:29;14.90;;;9.25;;
13252;SDS011;6693;54.370;10.132;2023-04-07T05:39:35;14.23;;;10.00;;
13252;SDS011;6693;54.370;10.132;2023-04-07T05:40:35;15.98;;;7.78;;
13252;SDS011;6693;54.370;10.132;2023-04-07T05:41:39;15.77;;;9.13;;
13252;SDS011;6693;54.370;10.132;2023-04-07T05:42:39;14.27;;;9.30;;
13252;SDS011;6693;54.370;10.132;2023-04-07T05:43:42;15.20;;;9.38;;
13252;SDS011;6693;54.370;10.132;2023-04-07T05:44:43;13.88;;;9.23;;
13252;SDS011;6693;54.370;10.132;2023-04-07T05:45:46;14.05;;;8.68;;
13252;SDS011;6693;54.370;10.132;2023-04-07T05:46:47;15.82;;;9.82;;
13252;SDS011;6693;54.370;10.132;2023-04-07T05:47:50;13.40;;;7.75;;
13252;SDS011;6693;54.370;10.132;2023-04-07T05:48:51;13.68;;;8.95;;
13252;SDS011;6693;54.370;10.132;2023-04-07T05:49:54;14.13;;;7.45;;
13252;SDS011;6693;54.370;10.132;2023-04-07T05:50:58;12.25;;;7.75;;
13252;SDS011;6693;54.370;10.132;2023-04-07T05:51:58;14.82;;;9.50;;
13252;SDS011;6693;54.370;10.132;2023-04-07T05:53:02;14.43;;;8.90;;
13252;SDS011;6693;54.370;10.132;2023-04-07T05:54:03;14.68;;;8.98;;
13252;SDS011;6693;54.370;10.132;2023-04-07T05:55:09;15.18;;;9.13;;
13252;SDS011;6693;54.370;10.132;2023-04-07T05:56:10;15.10;;;9.05;;
13252;SDS011;6693;54.370;10.132;2023-04-07T05:57:13;15.15;;;9.10;;
13252;SDS011;6693;54.370;10.132;2023-04-07T05:58:13;14.18;;;9.40;;
13252;SDS011;6693;54.370;10.132;2023-04-07T05:59:16;15.02;;;8.15;;
13252;SDS011;6693;54.370;10.132;2023-04-07T06:00:17;14.07;;;8.18;;
13252;SDS011;6693;54.370;10.132;2023-04-07T06:01:21;14.10;;;8.23;;
13252;SDS011;6693;54.370;10.132;2023-04-07T06:02:22;13.90;;;7.97;;
13252;SDS011;6693;54.370;10.132;2023-04-07T06:03:25;12.55;;;7.78;;
13252;SDS011;6693;54.370;10.132;2023-04-07T06:04:25;12.35;;;7.00;;
13252;SDS011;6693;54.370;10.132;2023-04-07T06:05:29;15.85;;;9.70;;
13252;SDS011;6693;54.370;10.132;2023-04-07T06:06:29;12.25;;;6.65;;
13252;SDS011;6693;54.370;10.132;2023-04-07T06:07:32;13.20;;;7.38;;
13252;SDS011;6693;54.370;10.132;2023-04-07T06:08:33;14.95;;;8.73;;
13252;SDS011;6693;54.370;10.132;2023-04-07T06:09:36;13.30;;;6.85;;
13252;SDS011;6693;54.370;10.132;2023-04-07T06:10:39;12.90;;;7.10;;
13252;SDS011;6693;54.370;10.132;2023-04-07T06:11:43;12.85;;;7.53;;
13252;SDS011;6693;54.370;10.132;2023-04-07T06:12:43;11.82;;;7.10;;
13252;SDS011;6693;54.370;10.132;2023-04-07T06:13:47;15.82;;;7.30;;
13252;SDS011;6693;54.370;10.132;2023-04-07T06:14:51;14.52;;;8.45;;
13252;SDS011;6693;54.370;10.132;2023-04-07T06:15:55;13.32;;;7.32;;
13252;SDS011;6693;54.370;10.132;2023-04-07T06:16:55;12.93;;;8.32;;
13252;SDS011;6693;54.370;10.132;2023-04-07T06:17:59;10.77;;;5.30;;
13252;SDS011;6693;54.370;10.132;2023-04-07T06:18:59;11.63;;;6.95;;